Time;durP1;ratioP1;P1;durP2;ratioP2;P2;SDS_P1;SDS_P2;PMS_P1;PMS_P2;Temp;Humidity;BMP_temperature;BMP_pressure;BME280_temperature;BME280_humidity;BME280_pressure;Samples;Min_cycle;Max_cycle;Signal;HPM_P1;HPM_P2
2023/07/16 00:02:07;;;;;;;4.33;3.93;;;22.60;1.00;;;;;;5041161;28;20811;-75
2023/07/16 00:04:34;;;;;;;5.00;4.60;;;22.70;1.00;;;;;;5043620;28;20558;-75
2023/07/16 00:07:01;;;;;;;6.23;4.97;;;22.70;1.00;;;;;;5041641;28;20478;-74
2023/07/16 00:09:30;;;;;;;4.73;4.33;;;22.70;1.00;;;;;;5042049;28;20488;-75
2023/07/16 00:11:57;;;;;;;5.17;4.77;;;22.80;1.00;;;;;;5041608;28;20453;-75
2023/07/16 00:14:24;;;;;;;4.93;4.43;;;22.90;1.00;;;;;;5041277;28;20469;-75
2023/07/16 00:16:51;;;;;;;4.50;4.07;;;23.00;1.00;;;;;;5039664;28;20476;-75
2023/07/16 00:19:18;;;;;;;4.83;4.40;;;23.00;1.00;;;;;;5040982;28;20476;-73
2023/07/16 00:21:45;;;;;;;4.10;3.80;;;23.00;1.00;;;;;;5042956;28;20560;-74
2023/07/16 00:24:12;;;;;;;4.80;4.40;;;23.10;1.00;;;;;;5044002;28;20481;-73
2023/07/16 00:26:40;;;;;;;5.17;4.77;;;23.10;1.00;;;;;;5043170;28;20466;-73
2023/07/16 00:29:08;;;;;;;4.03;3.73;;;23.20;1.00;;;;;;5044715;28;20457;-73
2023/07/16 00:31:35;;;;;;;4.40;4.00;;;23.20;1.00;;;;;;5043908;28;20527;-74
2023/07/16 00:34:02;;;;;;;3.80;3.50;;;23.20;1.00;;;;;;5044043;28;20880;-73
2023/07/16 00:36:29;;;;;;;4.80;4.30;;;23.10;1.00;;;;;;5040069;28;20471;-73
2023/07/16 00:38:56;;;;;;;4.87;4.47;;;23.10;1.00;;;;;;5042222;28;20513;-73
2023/07/16 00:41:23;;;;;;;4.77;4.30;;;23.10;1.00;;;;;;5039949;28;20444;-74
2023/07/16 00:43:54;;;;;;;5.20;4.80;;;23.00;1.00;;;;;;5040329;28;20547;-75
2023/07/16 00:46:21;;;;;;;5.53;5.13;;;23.00;1.00;;;;;;5042102;28;20465;-74
2023/07/16 00:48:48;;;;;;;5.90;4.90;;;22.90;1.00;;;;;;5042655;28;20461;-76
2023/07/16 00:51:16;;;;;;;5.33;4.93;;;23.00;1.00;;;;;;5044361;28;20459;-76
2023/07/16 00:53:44;;;;;;;5.10;4.70;;;23.00;1.00;;;;;;5024495;28;20538;-76
2023/07/16 00:56:11;;;;;;;4.93;4.53;;;23.10;1.00;;;;;;5041543;28;20455;-75
2023/07/16 00:58:41;;;;;;;5.47;5.07;;;23.10;1.00;;;;;;5037363;28;20943;-75
2023/07/16 01:01:10;;;;;;;5.77;5.10;;;23.10;1.00;;;;;;5042068;28;20481;-74
2023/07/16 01:03:37;;;;;;;5.20;4.80;;;23.00;1.00;;;;;;5037869;28;20497;-74
2023/07/16 01:06:11;;;;;;;5.03;4.53;;;22.90;1.00;;;;;;5040453;28;20489;-74
2023/07/16 01:08:42;;;;;;;5.87;5.37;;;22.70;1.00;;;;;;5042230;28;20464;-73
2023/07/16 01:11:10;;;;;;;5.07;4.67;;;22.60;1.00;;;;;;5050906;28;20535;-74
2023/07/16 01:13:37;;;;;;;6.67;4.83;;;22.50;1.00;;;;;;5036392;28;20480;-74
2023/07/16 01:16:05;;;;;;;5.37;4.97;;;22.30;1.00;;;;;;5042135;28;20483;-74
2023/07/16 01:18:33;;;;;;;6.07;5.50;;;22.20;1.00;;;;;;5038035;28;20552;-74
2023/07/16 01:21:00;;;;;;;41.97;32.97;;;22.00;1.00;;;;;;5038996;28;20460;-74
2023/07/16 01:23:38;;;;;;;11.23;10.13;;;21.90;1.00;;;;;;5037208;28;20469;-75
2023/07/16 01:26:27;;;;;;;7.10;6.40;;;21.70;1.00;;;;;;5039282;28;21221;-75
2023/07/16 01:29:24;;;;;;;8.47;6.83;;;21.50;1.00;;;;;;5035305;28;20503;-75
2023/07/16 01:31:53;;;;;;;7.73;7.23;;;21.20;1.00;;;;;;5030309;28;20454;-74
2023/07/16 01:34:20;;;;;;;8.77;7.97;;;21.10;1.00;;;;;;5035740;28;20492;-75
2023/07/16 01:36:47;;;;;;;8.00;7.30;;;21.00;1.00;;;;;;5034929;28;20431;-75
2023/07/16 01:39:15;;;;;;;8.90;7.57;;;20.90;1.00;;;;;;5038804;28;20455;-75
2023/07/16 01:41:42;;;;;;;8.73;8.13;;;20.90;1.00;;;;;;5036692;28;20477;-74
2023/07/16 01:44:09;;;;;;;8.33;7.53;;;20.90;1.00;;;;;;5037947;28;20494;-75
2023/07/16 01:46:36;;;;;;;7.60;7.00;;;20.90;1.00;;;;;;5036889;28;20973;-75
2023/07/16 01:49:04;;;;;;;8.33;7.63;;;20.80;1.00;;;;;;5040475;28;21001;-74
2023/07/16 01:51:31;;;;;;;7.87;7.17;;;20.80;1.00;;;;;;5035304;28;20544;-75
2023/07/16 01:53:58;;;;;;;7.53;6.93;;;20.80;1.00;;;;;;5046174;28;20489;-75
2023/07/16 01:56:25;;;;;;;7.77;7.00;;;20.90;1.00;;;;;;5047774;28;20457;-75
2023/07/16 01:58:52;;;;;;;7.30;6.63;;;21.00;1.00;;;;;;5013381;28;20482;-76
2023/07/16 02:01:19;;;;;;;6.00;5.50;;;21.10;1.00;;;;;;5043736;28;20548;-77
2023/07/16 02:03:46;;;;;;;7.07;6.47;;;21.20;1.00;;;;;;5043198;28;20519;-74
2023/07/16 02:06:15;;;;;;;6.47;5.97;;;21.30;1.00;;;;;;5043780;28;20471;-75
2023/07/16 02:08:41;;;;;;;6.00;5.60;;;21.50;1.00;;;;;;5041316;28;22265;-74
2023/07/16 02:11:08;;;;;;;5.73;5.03;;;21.60;1.00;;;;;;5045685;28;20470;-75
2023/07/16 02:13:35;;;;;;;5.53;5.13;;;21.80;1.00;;;;;;5041416;28;20489;-74
2023/07/16 02:16:02;;;;;;;5.93;5.03;;;22.10;1.00;;;;;;5037501;28;20468;-74
2023/07/16 02:18:29;;;;;;;5.10;4.70;;;22.30;1.00;;;;;;5040607;28;20846;-74
2023/07/16 02:20:57;;;;;;;5.43;4.93;;;22.50;1.00;;;;;;5037669;28;20446;-73
2023/07/16 02:23:26;;;;;;;6.90;5.20;;;22.50;1.00;;;;;;5037687;28;20477;-74
2023/07/16 02:25:53;;;;;;;4.47;4.17;;;22.40;1.00;;;;;;5037597;28;20465;-74
2023/07/16 02:28:20;;;;;;;4.80;4.33;;;22.10;1.00;;;;;;5038102;28;20525;-74
2023/07/16 02:30:47;;;;;;;4.20;3.90;;;21.80;1.00;;;;;;5038702;28;20450;-74
2023/07/16 02:33:14;;;;;;;4.93;4.53;;;21.60;1.00;;;;;;5036420;28;20803;-74
2023/07/16 02:35:41;;;;;;;4.90;4.30;;;21.50;1.00;;;;;;5041296;28;20465;-75
2023/07/16 02:38:09;;;;;;;4.60;4.30;;;21.30;1.00;;;;;;5038369;28;20526;-75
2023/07/16 02:40:43;;;;;;;5.10;4.47;;;21.20;1.00;;;;;;5040037;28;20670;-75
2023/07/16 02:43:10;;;;;;;5.10;4.60;;;21.10;1.00;;;;;;5038857;28;20916;-74
2023/07/16 02:45:36;;;;;;;5.17;4.77;;;21.00;1.00;;;;;;5044567;28;20488;-74
2023/07/16 02:48:04;;;;;;;4.30;4.00;;;20.90;1.00;;;;;;5043076;28;20537;-75
2023/07/16 02:50:31;;;;;;;4.40;4.00;;;20.90;1.00;;;;;;5043499;28;20535;-74
2023/07/16 02:52:58;;;;;;;5.17;4.77;;;20.90;1.00;;;;;;5044298;28;20450;-75
2023/07/16 02:55:25;;;;;;;5.10;4.60;;;20.90;1.00;;;;;;5042371;28;20462;-75
2023/07/16 02:57:53;;;;;;;4.40;4.00;;;20.90;1.00;;;;;;5041005;28;20549;-78
2023/07/16 03:00:20;;;;;;;5.17;4.77;;;20.90;1.00;;;;;;5041022;28;20515;-75
2023/07/16 03:02:48;;;;;;;5.53;5.03;;;20.90;1.00;;;;;;5037230;28;20549;-77
2023/07/16 03:05:16;;;;;;;5.07;4.67;;;20.90;1.00;;;;;;5042380;28;20454;-75
2023/07/16 03:07:43;;;;;;;5.13;4.73;;;20.90;1.00;;;;;;5042983;28;20465;-73
2023/07/16 03:10:11;;;;;;;6.03;5.43;;;20.80;1.00;;;;;;5035459;28;20492;-73
2023/07/16 03:12:38;;;;;;;7.40;4.63;;;20.80;1.00;;;;;;5037247;28;20520;-73
2023/07/16 03:15:08;;;;;;;5.43;4.30;;;20.80;1.00;;;;;;5031580;28;22800;-73
2023/07/16 03:17:35;;;;;;;5.03;4.13;;;20.70;1.00;;;;;;5037195;28;20468;-73
2023/07/16 03:20:02;;;;;;;5.00;4.60;;;20.60;1.00;;;;;;5043246;28;20595;-73
2023/07/16 03:22:29;;;;;;;4.80;4.40;;;20.60;1.00;;;;;;5040883;28;20515;-74
2023/07/16 03:24:56;;;;;;;5.60;4.90;;;20.60;1.00;;;;;;5041762;28;20551;-74
2023/07/16 03:27:23;;;;;;;4.40;4.10;;;20.50;1.00;;;;;;5044576;28;20892;-74
2023/07/16 03:29:50;;;;;;;4.73;4.30;;;20.50;1.00;;;;;;5043960;28;20567;-74
2023/07/16 03:32:18;;;;;;;4.40;4.00;;;20.40;1.00;;;;;;5042970;28;20471;-74
2023/07/16 03:34:45;;;;;;;5.27;4.87;;;20.40;1.00;;;;;;5035998;28;20469;-74
2023/07/16 03:37:12;;;;;;;5.07;4.70;;;20.40;1.00;;;;;;5043229;28;20545;-73
2023/07/16 03:39:39;;;;;;;4.70;4.30;;;20.30;1.00;;;;;;5036796;28;20467;-74
2023/07/16 03:42:06;;;;;;;4.80;4.40;;;20.40;1.00;;;;;;5044352;28;20475;-74
2023/07/16 03:44:33;;;;;;;4.10;3.70;;;20.30;1.00;;;;;;5042602;28;20477;-74
2023/07/16 03:47:00;;;;;;;4.03;3.73;;;20.30;1.00;;;;;;5043220;28;20524;-74
2023/07/16 03:49:28;;;;;;;4.40;4.00;;;20.30;1.00;;;;;;5041124;28;20476;-74
2023/07/16 03:51:55;;;;;;;4.33;3.60;;;20.30;1.00;;;;;;5038222;28;20495;-74
2023/07/16 03:54:22;;;;;;;3.93;3.40;;;20.20;1.00;;;;;;5040543;28;20453;-74
2023/07/16 03:56:49;;;;;;;3.90;3.60;;;20.30;1.00;;;;;;5038977;28;20546;-74
2023/07/16 03:59:16;;;;;;;5.87;3.40;;;20.30;1.00;;;;;;5038813;28;20465;-74
2023/07/16 04:01:43;;;;;;;3.83;3.50;;;20.30;1.00;;;;;;5043615;28;20481;-74
2023/07/16 04:04:10;;;;;;;4.33;4.03;;;20.30;1.00;;;;;;5035304;28;20491;-74
2023/07/16 04:06:40;;;;;;;5.47;3.90;;;20.40;1.00;;;;;;5042557;28;20471;-74
2023/07/16 04:09:07;;;;;;;4.00;3.50;;;20.40;1.00;;;;;;5041942;28;20944;-74
2023/07/16 04:11:34;;;;;;;3.97;3.67;;;20.40;1.00;;;;;;5038712;28;20552;-74
2023/07/16 04:14:01;;;;;;;4.30;3.87;;;20.50;1.00;;;;;;5037740;28;20455;-74
2023/07/16 04:16:28;;;;;;;3.73;3.43;;;20.60;1.00;;;;;;5037027;28;20469;-75
2023/07/16 04:18:55;;;;;;;4.87;4.40;;;20.60;1.00;;;;;;5040308;28;20548;-74
2023/07/16 04:21:21;;;;;;;3.90;3.60;;;20.60;1.00;;;;;;5038629;28;20505;-74
2023/07/16 04:23:50;;;;;;;4.30;4.00;;;20.60;1.00;;;;;;5039384;28;20448;-73
2023/07/16 04:26:17;;;;;;;4.60;4.10;;;20.60;1.00;;;;;;5046766;28;20455;-74
2023/07/16 04:28:44;;;;;;;3.73;3.43;;;20.50;1.00;;;;;;5032482;28;20491;-74
2023/07/16 04:31:11;;;;;;;3.83;3.53;;;20.50;1.00;;;;;;5037072;28;20473;-74
2023/07/16 04:33:38;;;;;;;6.60;4.27;;;20.60;1.00;;;;;;5040043;28;20497;-74
2023/07/16 04:36:05;;;;;;;4.70;4.20;;;20.60;1.00;;;;;;5038377;28;20464;-74
2023/07/16 04:38:32;;;;;;;4.53;4.10;;;20.60;1.00;;;;;;5020772;28;20484;-74
2023/07/16 04:41:00;;;;;;;4.80;4.30;;;20.70;1.00;;;;;;5042208;28;20480;-73
2023/07/16 04:43:27;;;;;;;5.10;4.40;;;20.70;1.00;;;;;;5043250;28;20475;-73
2023/07/16 04:45:54;;;;;;;4.97;4.57;;;20.60;1.00;;;;;;5037829;28;20484;-73
2023/07/16 04:48:21;;;;;;;5.73;4.20;;;20.50;1.00;;;;;;5041342;28;20457;-73
2023/07/16 04:50:48;;;;;;;4.57;4.17;;;20.60;1.00;;;;;;5046719;28;20465;-73
2023/07/16 04:53:18;;;;;;;6.70;4.73;;;20.50;1.00;;;;;;5042130;28;20468;-73
2023/07/16 04:55:45;;;;;;;5.43;4.70;;;20.40;1.00;;;;;;5042276;28;20910;-74
2023/07/16 04:58:14;;;;;;;5.27;4.20;;;20.40;1.00;;;;;;5041468;28;20959;-74
2023/07/16 05:00:40;;;;;;;4.80;4.40;;;20.50;1.00;;;;;;5041858;28;20483;-75
2023/07/16 05:03:08;;;;;;;4.77;4.30;;;20.50;1.00;;;;;;5035978;28;20456;-74
2023/07/16 05:05:35;;;;;;;5.93;4.50;;;20.60;1.00;;;;;;5040793;28;20877;-75
2023/07/16 05:08:02;;;;;;;4.03;3.70;;;20.70;1.00;;;;;;5043765;28;20482;-75
2023/07/16 05:10:29;;;;;;;4.77;4.47;;;20.80;1.00;;;;;;5040696;28;21195;-75
2023/07/16 05:12:56;;;;;;;5.03;4.63;;;20.90;1.00;;;;;;5040618;28;20546;-74
2023/07/16 05:15:24;;;;;;;4.77;4.37;;;20.90;1.00;;;;;;5033843;28;20485;-74
2023/07/16 05:17:51;;;;;;;7.10;4.50;;;21.00;1.00;;;;;;5037096;28;20461;-74
2023/07/16 05:20:18;;;;;;;4.83;4.43;;;21.00;1.00;;;;;;5044143;28;20944;-74
2023/07/16 05:22:45;;;;;;;5.60;4.73;;;21.10;1.00;;;;;;5045687;28;20907;-74
2023/07/16 05:25:12;;;;;;;5.10;4.70;;;21.20;1.00;;;;;;5033849;28;20470;-74
2023/07/16 05:27:39;;;;;;;5.20;4.80;;;21.30;1.00;;;;;;5037262;28;20471;-74
2023/07/16 05:30:09;;;;;;;5.23;4.83;;;21.40;1.00;;;;;;5036348;28;21302;-73
2023/07/16 05:32:38;;;;;;;5.20;4.80;;;21.40;1.00;;;;;;5024169;28;20539;-74
2023/07/16 05:35:05;;;;;;;4.30;4.00;;;21.50;1.00;;;;;;5031452;28;20480;-72
2023/07/16 05:37:32;;;;;;;4.47;4.13;;;21.50;1.00;;;;;;5032546;28;20555;-73
2023/07/16 05:39:59;;;;;;;5.27;4.77;;;21.60;1.00;;;;;;5039454;28;20474;-73
2023/07/16 05:42:27;;;;;;;4.97;4.57;;;21.90;1.00;;;;;;5036028;28;20461;-75
2023/07/16 05:44:54;;;;;;;4.33;4.03;;;22.10;1.00;;;;;;5027295;28;20458;-75
2023/07/16 05:47:21;;;;;;;6.40;4.43;;;22.00;1.00;;;;;;5032616;28;20458;-75
2023/07/16 05:49:50;;;;;;;4.70;4.30;;;22.10;1.00;;;;;;5034239;28;20540;-75
2023/07/16 05:52:17;;;;;;;4.80;4.43;;;22.00;1.00;;;;;;5037250;28;20558;-76
2023/07/16 05:54:45;;;;;;;4.83;4.10;;;22.10;1.00;;;;;;5035052;28;21244;-75
2023/07/16 05:57:12;;;;;;;3.93;3.63;;;22.10;1.00;;;;;;5035015;28;20466;-74
2023/07/16 05:59:39;;;;;;;5.10;4.70;;;22.10;1.00;;;;;;5026745;28;21884;-73
2023/07/16 06:02:07;;;;;;;4.47;4.10;;;22.10;1.00;;;;;;5033829;28;20516;-75
2023/07/16 06:04:34;;;;;;;4.30;3.90;;;22.20;1.00;;;;;;5033943;28;20494;-75
2023/07/16 06:07:04;;;;;;;5.17;4.77;;;22.30;1.00;;;;;;5031505;28;20496;-75
2023/07/16 06:09:31;;;;;;;5.03;4.53;;;22.40;1.00;;;;;;5033749;28;20482;-75
2023/07/16 06:11:58;;;;;;;5.37;4.27;;;22.50;1.00;;;;;;5040777;28;20447;-75
2023/07/16 06:14:25;;;;;;;4.47;4.07;;;22.50;1.00;;;;;;5036521;28;21026;-75
2023/07/16 06:16:52;;;;;;;5.33;4.60;;;22.50;1.00;;;;;;5039252;28;20451;-74
2023/07/16 06:19:19;;;;;;;6.10;4.97;;;22.50;1.00;;;;;;5035262;28;20605;-74
2023/07/16 06:21:46;;;;;;;6.53;4.40;;;22.70;1.00;;;;;;5023601;28;20571;-74
2023/07/16 06:24:14;;;;;;;5.10;4.70;;;22.80;1.00;;;;;;5024152;28;20464;-75
2023/07/16 06:26:41;;;;;;;5.20;4.70;;;22.80;1.00;;;;;;5025022;28;20477;-75
2023/07/16 06:29:08;;;;;;;4.67;4.23;;;22.90;1.00;;;;;;5031091;28;20478;-75
2023/07/16 06:31:36;;;;;;;5.07;4.67;;;22.80;1.00;;;;;;5036516;28;20455;-75
2023/07/16 06:34:03;;;;;;;4.70;4.20;;;22.90;1.00;;;;;;5034123;28;20480;-77
2023/07/16 06:36:30;;;;;;;5.20;4.47;;;22.90;1.00;;;;;;5035804;28;20602;-76
2023/07/16 06:38:57;;;;;;;4.70;4.40;;;23.00;1.00;;;;;;5041049;28;20472;-75
2023/07/16 06:41:25;;;;;;;5.07;4.60;;;23.10;1.00;;;;;;5043779;28;20960;-75
2023/07/16 06:43:52;;;;;;;4.80;4.40;;;23.10;1.00;;;;;;5038432;28;20476;-75
2023/07/16 06:46:19;;;;;;;4.80;4.40;;;23.30;1.00;;;;;;5043273;28;20464;-76
2023/07/16 06:48:46;;;;;;;4.97;4.57;;;23.40;1.00;;;;;;5044266;28;20527;-75
2023/07/16 06:51:14;;;;;;;4.53;4.10;;;23.40;1.00;;;;;;5037958;28;20594;-75
2023/07/16 06:53:41;;;;;;;4.33;3.90;;;23.50;1.00;;;;;;5042605;28;20477;-75
2023/07/16 06:56:08;;;;;;;4.97;4.60;;;23.60;1.00;;;;;;5043046;28;20885;-76
2023/07/16 06:58:37;;;;;;;4.80;4.40;;;23.70;1.00;;;;;;5040629;28;20479;-76
2023/07/16 07:01:04;;;;;;;4.73;4.30;;;23.80;1.00;;;;;;5046236;28;20463;-76
2023/07/16 07:03:33;;;;;;;4.50;4.20;;;23.80;1.00;;;;;;5041556;28;20454;-77
2023/07/16 07:06:02;;;;;;;3.70;3.40;;;23.90;1.00;;;;;;5045286;28;20461;-76
2023/07/16 07:08:29;;;;;;;4.23;3.93;;;24.00;1.00;;;;;;5041721;28;20510;-76
2023/07/16 07:10:57;;;;;;;4.80;4.40;;;24.20;1.00;;;;;;5041897;28;20601;-77
2023/07/16 07:13:25;;;;;;;4.03;3.53;;;24.40;1.00;;;;;;5041168;28;20950;-76
2023/07/16 07:15:54;;;;;;;4.23;3.77;;;24.60;1.00;;;;;;5039969;28;20534;-77
2023/07/16 07:18:21;;;;;;;4.30;3.90;;;24.70;1.00;;;;;;5044084;28;20493;-76
2023/07/16 07:20:48;;;;;;;4.37;3.50;;;25.00;1.00;;;;;;5041169;28;23739;-77
2023/07/16 07:23:17;;;;;;;4.40;4.00;;;25.10;1.00;;;;;;5042513;28;20562;-77
2023/07/16 07:25:44;;;;;;;3.70;3.40;;;25.00;1.00;;;;;;5039507;28;20523;-76
2023/07/16 07:28:11;;;;;;;4.23;3.83;;;25.00;1.00;;;;;;5039684;28;21257;-75
2023/07/16 07:30:38;;;;;;;4.10;3.80;;;24.90;1.00;;;;;;5041032;28;20507;-74
2023/07/16 07:33:06;;;;;;;5.83;3.70;;;25.10;1.00;;;;;;5042671;28;20463;-74
2023/07/16 07:35:33;;;;;;;4.67;4.13;;;25.00;1.00;;;;;;5043581;28;20475;-74
2023/07/16 07:38:00;;;;;;;4.70;4.30;;;25.00;1.00;;;;;;5039992;28;20472;-72
2023/07/16 07:40:27;;;;;;;4.27;3.87;;;25.10;1.00;;;;;;5044580;28;20550;-72
2023/07/16 07:42:54;;;;;;;5.13;4.03;;;25.10;1.00;;;;;;5041608;28;20474;-74
2023/07/16 07:45:21;;;;;;;4.63;4.33;;;25.20;1.00;;;;;;5039524;28;20962;-73
2023/07/16 07:47:48;;;;;;;4.10;3.90;;;25.30;1.00;;;;;;5029886;28;20483;-73
2023/07/16 07:50:17;;;;;;;4.77;4.27;;;25.40;1.00;;;;;;5040291;28;20464;-73
2023/07/16 07:52:44;;;;;;;3.90;3.60;;;25.80;1.00;;;;;;5042358;28;20595;-73
2023/07/16 07:55:11;;;;;;;4.17;3.87;;;26.00;1.00;;;;;;5037740;28;20558;-72
2023/07/16 07:57:38;;;;;;;4.80;4.27;;;26.00;1.00;;;;;;5037367;28;20494;-73
2023/07/16 08:00:11;;;;;;;4.60;3.50;;;26.20;1.00;;;;;;5043137;28;20458;-73
2023/07/16 08:02:38;;;;;;;5.37;4.03;;;26.30;1.00;;;;;;5039855;28;20482;-73
2023/07/16 08:05:06;;;;;;;4.33;3.57;;;26.20;1.00;;;;;;5042523;28;20965;-73
2023/07/16 08:07:35;;;;;;;5.60;4.17;;;26.20;1.00;;;;;;5042003;28;20546;-74
2023/07/16 08:10:02;;;;;;;3.33;3.03;;;26.10;1.00;;;;;;5032810;28;20473;-74
2023/07/16 08:12:30;;;;;;;3.40;3.20;;;25.90;1.00;;;;;;5037421;28;20999;-73
2023/07/16 08:14:57;;;;;;;5.33;3.50;;;25.70;1.00;;;;;;5037349;28;20970;-73
2023/07/16 08:17:24;;;;;;;3.63;3.33;;;25.40;1.00;;;;;;5038331;28;20597;-73
2023/07/16 08:19:51;;;;;;;3.13;2.83;;;25.30;1.00;;;;;;5041415;28;20450;-74
2023/07/16 08:22:18;;;;;;;3.40;3.07;;;25.30;1.00;;;;;;5037765;28;20465;-74
2023/07/16 08:24:46;;;;;;;3.43;3.20;;;25.50;1.00;;;;;;5041971;28;20465;-74
2023/07/16 08:27:14;;;;;;;3.67;3.37;;;26.10;1.00;;;;;;5039970;28;20504;-73
2023/07/16 08:29:41;;;;;;;3.00;2.80;;;26.40;1.00;;;;;;5038053;28;20471;-74
2023/07/16 08:32:09;;;;;;;2.80;2.60;;;26.30;1.00;;;;;;5038532;28;20481;-73
2023/07/16 08:34:36;;;;;;;3.20;3.00;;;26.10;1.00;;;;;;5036440;28;20538;-73
2023/07/16 08:37:02;;;;;;;2.60;2.40;;;26.00;1.00;;;;;;5035526;28;20516;-74
2023/07/16 08:39:29;;;;;;;2.80;2.60;;;26.00;1.00;;;;;;5041767;28;20800;-73
2023/07/16 08:41:58;;;;;;;2.50;2.30;;;26.10;1.00;;;;;;5040753;28;22355;-74
2023/07/16 08:44:25;;;;;;;4.13;2.80;;;26.10;1.00;;;;;;5041358;28;20505;-74
2023/07/16 08:46:53;;;;;;;3.03;2.43;;;26.20;1.00;;;;;;5038519;28;20463;-76
2023/07/16 08:49:23;;;;;;;3.43;2.70;;;26.20;1.00;;;;;;5034972;28;20557;-74
2023/07/16 08:51:50;;;;;;;2.87;2.67;;;26.20;1.00;;;;;;5027999;28;20454;-75
2023/07/16 08:54:19;;;;;;;3.00;2.70;;;26.20;1.00;;;;;;5027753;28;21329;-75
2023/07/16 08:56:49;;;;;;;2.80;2.60;;;26.30;1.00;;;;;;5036537;28;20493;-74
2023/07/16 08:59:19;;;;;;;3.13;2.83;;;26.30;1.00;;;;;;5037054;28;20471;-74
2023/07/16 09:01:48;;;;;;;2.50;2.30;;;26.50;1.00;;;;;;5038691;28;20574;-74
2023/07/16 09:04:15;;;;;;;2.97;2.77;;;26.70;1.00;;;;;;5041533;28;20460;-74
2023/07/16 09:06:42;;;;;;;4.80;3.10;;;26.90;1.00;;;;;;5039148;28;20539;-74
2023/07/16 09:09:10;;;;;;;2.87;2.67;;;27.00;1.00;;;;;;5037708;28;20514;-74
2023/07/16 09:11:37;;;;;;;3.07;2.87;;;26.90;1.00;;;;;;5037363;28;20848;-74
2023/07/16 09:14:04;;;;;;;2.87;2.67;;;26.90;1.00;;;;;;5040901;28;20447;-74
2023/07/16 09:16:35;;;;;;;3.00;2.67;;;27.00;1.00;;;;;;5039978;28;20502;-74
2023/07/16 09:19:07;;;;;;;3.23;2.87;;;27.10;1.00;;;;;;5040930;28;20458;-74
2023/07/16 09:21:35;;;;;;;5.50;3.30;;;27.20;1.00;;;;;;5038459;28;20559;-74
2023/07/16 09:24:08;;;;;;;3.33;2.83;;;27.60;1.00;;;;;;5036492;28;20468;-72
2023/07/16 09:26:37;;;;;;;3.20;2.47;;;27.80;1.00;;;;;;5040166;28;20467;-74
2023/07/16 09:29:07;;;;;;;4.20;3.27;;;27.90;1.00;;;;;;5039759;28;20551;-74
2023/07/16 09:31:35;;;;;;;3.70;3.10;;;28.00;1.00;;;;;;5036927;28;20462;-72
2023/07/16 09:34:02;;;;;;;3.90;3.00;;;28.30;1.00;;;;;;5039781;28;20475;-73
2023/07/16 09:36:29;;;;;;;3.20;2.90;;;28.50;1.00;;;;;;5040591;28;20475;-74
2023/07/16 09:38:58;;;;;;;5.10;3.17;;;28.50;1.00;;;;;;5037683;28;20530;-73
2023/07/16 09:41:25;;;;;;;3.70;2.80;;;28.70;1.00;;;;;;5038628;28;20466;-73
2023/07/16 09:43:52;;;;;;;3.03;2.83;;;29.30;1.00;;;;;;5036488;28;20514;-74
2023/07/16 09:46:19;;;;;;;3.70;2.90;;;30.00;1.00;;;;;;5040100;28;20527;-73
2023/07/16 09:48:48;;;;;;;3.03;2.60;;;31.00;1.00;;;;;;5039277;28;20948;-76
2023/07/16 09:51:16;;;;;;;5.03;2.77;;;31.60;1.00;;;;;;5041055;28;20457;-76
2023/07/16 09:53:45;;;;;;;5.13;2.50;;;31.20;1.00;;;;;;5036455;28;20470;-76
2023/07/16 09:56:14;;;;;;;2.90;2.70;;;32.00;1.00;;;;;;5039276;28;20471;-76
2023/07/16 09:58:42;;;;;;;3.10;2.63;;;33.00;1.00;;;;;;5041484;28;20967;-76
2023/07/16 10:01:10;;;;;;;3.50;2.73;;;33.00;1.00;;;;;;5042053;28;20464;-77
2023/07/16 10:03:37;;;;;;;2.87;2.63;;;32.70;1.00;;;;;;5029484;28;20484;-76
2023/07/16 10:06:09;;;;;;;3.60;2.70;;;33.30;1.00;;;;;;5034352;28;20935;-75
2023/07/16 10:08:36;;;;;;;5.70;2.73;;;34.10;1.00;;;;;;5039077;28;20997;-75
2023/07/16 10:11:03;;;;;;;3.47;2.60;;;34.90;1.00;;;;;;5039781;28;20436;-75
2023/07/16 10:13:30;;;;;;;2.83;2.57;;;34.50;1.00;;;;;;5041405;28;20456;-75
2023/07/16 10:16:00;;;;;;;2.80;2.60;;;34.30;1.00;;;;;;5045143;28;20553;-76
2023/07/16 10:18:30;;;;;;;3.83;2.33;;;34.50;1.00;;;;;;5046914;28;20554;-75
2023/07/16 10:21:02;;;;;;;3.23;2.50;;;35.30;1.00;;;;;;5041720;28;21858;-76
2023/07/16 10:23:40;;;;;;;2.47;2.27;;;35.90;1.00;;;;;;5039476;28;20453;-75
2023/07/16 10:26:09;;;;;;;3.57;3.03;;;36.30;1.00;;;;;;5041712;28;20559;-75
2023/07/16 10:28:36;;;;;;;3.53;2.57;;;36.90;1.00;;;;;;5044380;28;20534;-75
2023/07/16 10:31:03;;;;;;;4.80;3.07;;;37.30;1.00;;;;;;5044320;28;20509;-75
2023/07/16 10:33:31;;;;;;;3.33;2.67;;;36.90;1.00;;;;;;5043615;28;20428;-75
2023/07/16 10:35:59;;;;;;;4.00;2.50;;;36.30;1.00;;;;;;5044543;28;20476;-75
2023/07/16 10:38:26;;;;;;;3.00;2.63;;;36.60;1.00;;;;;;5039165;28;20521;-77
2023/07/16 10:40:56;;;;;;;2.63;2.43;;;36.90;1.00;;;;;;5040924;28;20534;-76
2023/07/16 10:43:26;;;;;;;3.20;2.93;;;37.30;1.00;;;;;;5044406;28;20562;-77
2023/07/16 10:45:53;;;;;;;2.80;2.60;;;37.60;1.00;;;;;;5044819;28;20481;-76
2023/07/16 10:48:27;;;;;;;2.87;2.63;;;38.40;1.00;;;;;;5042356;28;20464;-75
2023/07/16 10:50:55;;;;;;;2.47;2.37;;;38.70;1.00;;;;;;5047049;28;20603;-77
2023/07/16 10:53:22;;;;;;;3.10;2.80;;;38.80;1.00;;;;;;5044128;28;20494;-77
2023/07/16 10:55:49;;;;;;;2.77;2.57;;;39.30;1.00;;;;;;5045274;28;20508;-76
2023/07/16 10:58:17;;;;;;;2.77;2.57;;;39.10;1.00;;;;;;5041443;28;20456;-76
2023/07/16 11:00:46;;;;;;;2.63;2.43;;;38.20;1.00;;;;;;5047623;28;20959;-76
2023/07/16 11:03:15;;;;;;;4.00;3.70;;;37.50;1.00;;;;;;5041019;28;20455;-76
2023/07/16 11:05:42;;;;;;;2.97;2.47;;;36.80;1.00;;;;;;5040388;28;20831;-76
2023/07/16 11:08:09;;;;;;;4.03;2.97;;;35.50;1.00;;;;;;5042293;28;20558;-75
2023/07/16 11:10:36;;;;;;;3.13;2.93;;;34.50;1.00;;;;;;5038814;28;20476;-75
2023/07/16 11:13:03;;;;;;;3.13;2.80;;;33.80;1.00;;;;;;5033177;28;20510;-76
2023/07/16 11:15:35;;;;;;;3.07;2.67;;;33.20;1.00;;;;;;5038064;28;20462;-75
2023/07/16 11:18:02;;;;;;;3.10;2.80;;;33.20;1.00;;;;;;5038582;28;20456;-76
2023/07/16 11:20:31;;;;;;;3.33;3.03;;;34.20;1.00;;;;;;5031237;28;20470;-76
2023/07/16 11:22:59;;;;;;;3.87;2.80;;;34.70;1.00;;;;;;5032595;28;20473;-77
2023/07/16 11:25:27;;;;;;;3.10;2.80;;;33.90;1.00;;;;;;5032077;28;20517;-76
2023/07/16 11:27:56;;;;;;;2.97;2.67;;;34.00;1.00;;;;;;5032768;28;20492;-76
2023/07/16 11:30:24;;;;;;;3.23;2.93;;;35.60;1.00;;;;;;5035757;28;20485;-77
2023/07/16 11:32:53;;;;;;;2.90;2.70;;;37.00;1.00;;;;;;5042493;28;20511;-75
2023/07/16 11:35:21;;;;;;;3.40;2.93;;;36.70;1.00;;;;;;5041447;28;20472;-76
2023/07/16 11:37:49;;;;;;;3.60;3.23;;;36.10;1.00;;;;;;5041513;28;20457;-76
2023/07/16 11:40:18;;;;;;;2.83;2.63;;;35.40;1.00;;;;;;5040835;28;20488;-77
2023/07/16 11:42:46;;;;;;;3.60;3.30;;;34.60;1.00;;;;;;5041100;28;20550;-77
2023/07/16 11:45:18;;;;;;;3.90;3.50;;;34.30;1.00;;;;;;5041009;28;20558;-76
2023/07/16 11:47:46;;;;;;;4.50;3.43;;;34.80;1.00;;;;;;5034428;28;21063;-77
2023/07/16 11:50:15;;;;;;;4.07;3.30;;;34.00;1.00;;;;;;5037081;28;20471;-76
2023/07/16 11:52:42;;;;;;;4.13;2.93;;;33.10;1.00;;;;;;5035927;28;20453;-76
2023/07/16 11:55:09;;;;;;;2.90;2.70;;;32.90;1.00;;;;;;5040571;28;20531;-76
2023/07/16 11:57:36;;;;;;;4.10;3.80;;;34.40;1.00;;;;;;5041119;28;20461;-76
2023/07/16 12:00:04;;;;;;;2.83;2.53;;;36.20;1.00;;;;;;5041654;28;20453;-76
2023/07/16 12:02:32;;;;;;;3.60;2.83;;;37.80;1.00;;;;;;5038590;28;20530;-76
2023/07/16 12:05:00;;;;;;;3.77;2.67;;;38.80;1.00;;;;;;5044559;28;20467;-75
2023/07/16 12:07:36;;;;;;;3.00;2.80;;;39.60;1.00;;;;;;5035985;28;22211;-76
2023/07/16 12:10:04;;;;;;;6.33;2.10;;;40.50;1.00;;;;;;5037439;28;20428;-75
2023/07/16 12:12:32;;;;;;;2.70;2.50;;;41.30;1.00;;;;;;5035791;28;20452;-76
2023/07/16 12:15:00;;;;;;;4.50;2.70;;;41.60;1.00;;;;;;5031901;28;20682;-77
2023/07/16 12:17:27;;;;;;;2.90;2.33;;;41.20;1.00;;;;;;5034261;28;20457;-76
2023/07/16 12:19:54;;;;;;;2.40;2.20;;;41.70;1.00;;;;;;5043207;28;20547;-77
2023/07/16 12:22:22;;;;;;;3.03;2.40;;;41.70;1.00;;;;;;5036515;28;20523;-76
2023/07/16 12:24:51;;;;;;;2.93;2.60;;;41.10;1.00;;;;;;5040770;28;20468;-75
2023/07/16 12:27:20;;;;;;;2.70;2.50;;;40.70;1.00;;;;;;5040112;28;20570;-77
2023/07/16 12:29:47;;;;;;;2.50;2.30;;;40.90;1.00;;;;;;5034028;28;20461;-76
2023/07/16 12:32:14;;;;;;;2.60;2.40;;;41.10;1.00;;;;;;5038576;28;20466;-75
2023/07/16 12:34:41;;;;;;;2.70;2.50;;;41.30;1.00;;;;;;5034096;28;20484;-76
2023/07/16 12:37:08;;;;;;;2.30;1.90;;;41.30;1.00;;;;;;5030640;28;20480;-76
2023/07/16 12:39:36;;;;;;;2.47;2.27;;;41.20;1.00;;;;;;5031064;28;21048;-76
2023/07/16 12:42:04;;;;;;;2.50;2.30;;;41.70;1.00;;;;;;5031346;28;20958;-76
2023/07/16 12:44:31;;;;;;;2.93;2.20;;;41.90;1.00;;;;;;5029275;28;20643;-75
2023/07/16 12:46:59;;;;;;;2.23;2.00;;;42.10;1.00;;;;;;5032191;28;20467;-75
2023/07/16 12:49:26;;;;;;;2.60;2.40;;;42.10;1.00;;;;;;5030832;28;20471;-75
2023/07/16 12:51:53;;;;;;;3.27;2.63;;;42.00;1.00;;;;;;5032313;28;20496;-74
2023/07/16 12:54:20;;;;;;;2.53;2.33;;;42.20;1.00;;;;;;5034977;28;20468;-75
2023/07/16 12:56:47;;;;;;;2.80;2.50;;;42.70;1.00;;;;;;5035678;28;21054;-75
2023/07/16 12:59:16;;;;;;;2.27;2.07;;;43.10;1.00;;;;;;5041326;28;20473;-74
2023/07/16 13:01:43;;;;;;;3.37;2.63;;;42.70;1.00;;;;;;5041702;28;20574;-76